Time;durP1;ratioP1;P1;durP2;ratioP2;P2;SDS_P1;SDS_P2;PMS_P1;PMS_P2;Temp;Humidity;BMP_temperature;BMP_pressure;BME280_temperature;BME280_humidity;BME280_pressure;Samples;Min_cycle;Max_cycle;Signal;HPM_P1;HPM_P2
2021/01/21 00:00:54;;;;;;;5.78;1.88;;;10.90;99.90;;;;;;5096359;28;20030;-69
2021/01/21 00:03:19;;;;;;;3.25;2.00;;;10.90;99.90;;;;;;5095394;28;20048;-69
2021/01/21 00:05:45;;;;;;;5.20;1.90;;;10.90;99.90;;;;;;5090912;28;20391;-70
2021/01/21 00:08:11;;;;;;;2.75;1.55;;;10.90;99.90;;;;;;5088084;28;20031;-68
2021/01/21 00:10:36;;;;;;;2.88;1.45;;;10.90;99.90;;;;;;5091810;28;20353;-68
2021/01/21 00:13:02;;;;;;;4.00;1.35;;;10.90;99.90;;;;;;5089522;28;20037;-69
2021/01/21 00:15:27;;;;;;;2.38;1.52;;;11.00;99.90;;;;;;5070498;28;20078;-68
2021/01/21 00:17:53;;;;;;;2.40;1.08;;;11.10;99.90;;;;;;5089211;28;20031;-67
2021/01/21 00:20:18;;;;;;;3.00;1.35;;;11.10;99.90;;;;;;5088289;28;20028;-69
2021/01/21 00:22:44;;;;;;;4.82;1.58;;;11.10;99.90;;;;;;5080082;28;20103;-69
2021/01/21 00:48:46;;;;;;;3.45;1.95;;;10.30;99.90;;;;;;5089136;28;20071;-71
2021/01/21 00:51:12;;;;;;;3.15;1.67;;;10.20;99.90;;;;;;5088517;28;20405;-70
2021/01/21 00:53:38;;;;;;;3.90;1.92;;;10.10;99.90;;;;;;5070671;28;20035;-70
2021/01/21 00:56:05;;;;;;;3.45;1.67;;;10.10;99.90;;;;;;5088662;28;20050;-71
2021/01/21 00:58:31;;;;;;;6.40;1.85;;;10.00;99.90;;;;;;5087889;28;20063;-71
2021/01/21 01:00:57;;;;;;;7.82;1.85;;;10.00;99.90;;;;;;5089373;28;20438;-70
2021/01/21 01:03:22;;;;;;;6.50;1.83;;;10.10;99.90;;;;;;5088763;28;20012;-70
2021/01/21 01:05:48;;;;;;;4.68;1.52;;;10.10;99.90;;;;;;5082403;28;20103;-71
2021/01/21 01:08:13;;;;;;;2.22;1.30;;;10.10;99.90;;;;;;5085391;28;20408;-70
2021/01/21 01:10:39;;;;;;;2.58;1.33;;;10.30;99.90;;;;;;5089160;28;20032;-70
2021/01/21 01:13:05;;;;;;;2.78;1.58;;;10.40;99.90;;;;;;5088274;28;20048;-69
2021/01/21 01:15:33;;;;;;;2.03;1.10;;;10.50;99.90;;;;;;5078254;28;20027;-68
2021/01/21 01:17:59;;;;;;;3.28;1.20;;;10.60;99.90;;;;;;5088117;28;20024;-69
2021/01/21 01:20:25;;;;;;;2.05;1.42;;;10.70;99.90;;;;;;5083935;28;20032;-70
2021/01/21 01:22:52;;;;;;;2.35;1.35;;;10.70;99.90;;;;;;5085929;28;20503;-67
2021/01/21 01:25:18;;;;;;;6.43;1.67;;;10.90;99.90;;;;;;5089026;28;20040;-70
2021/01/21 01:27:45;;;;;;;3.33;1.55;;;11.00;99.90;;;;;;5086888;28;20055;-68
2021/01/21 01:30:12;;;;;;;5.97;1.17;;;11.10;99.90;;;;;;5085776;28;20035;-70
2021/01/21 01:32:38;;;;;;;5.20;1.10;;;11.20;99.90;;;;;;5088335;28;20172;-70
2021/01/21 01:35:06;;;;;;;5.20;1.35;;;11.30;99.90;;;;;;5087184;28;20042;-71
2021/01/21 01:37:32;;;;;;;3.50;1.40;;;11.40;99.90;;;;;;5087997;28;20024;-69
2021/01/21 01:39:57;;;;;;;3.38;1.55;;;11.40;99.90;;;;;;5088965;28;20023;-67
2021/01/21 01:42:23;;;;;;;1.58;1.00;;;11.50;99.90;;;;;;5085828;28;20035;-69
2021/01/21 01:44:48;;;;;;;2.63;1.30;;;11.50;99.90;;;;;;5088033;28;20540;-69
2021/01/21 01:47:16;;;;;;;4.47;1.65;;;11.40;99.90;;;;;;5088053;28;20028;-70
2021/01/21 01:49:42;;;;;;;6.55;1.40;;;11.40;99.90;;;;;;5088147;28;20016;-69
2021/01/21 01:52:08;;;;;;;3.88;1.35;;;11.30;99.90;;;;;;5068696;28;20052;-69
2021/01/21 01:54:36;;;;;;;5.00;1.13;;;11.40;99.90;;;;;;5087178;28;20047;-69
2021/01/21 01:57:04;;;;;;;3.53;1.20;;;11.30;99.90;;;;;;5088809;28;20038;-69
2021/01/21 01:59:31;;;;;;;2.65;1.08;;;11.20;99.90;;;;;;5083054;28;20423;-72
2021/01/21 02:01:56;;;;;;;4.15;1.30;;;11.20;99.90;;;;;;5088503;28;20085;-70
2021/01/21 02:04:23;;;;;;;1.73;1.10;;;11.30;99.90;;;;;;5069830;28;20036;-66
2021/01/21 02:06:49;;;;;;;2.40;1.10;;;11.20;99.90;;;;;;5083968;28;20032;-71
2021/01/21 02:09:14;;;;;;;3.10;1.17;;;11.20;99.90;;;;;;5088465;28;20676;-71
2021/01/21 02:11:56;;;;;;;4.55;1.25;;;11.30;99.90;;;;;;5085361;28;20439;-71
2021/01/21 02:14:34;;;;;;;1.75;1.23;;;11.40;99.90;;;;;;5087333;28;20142;-70
2021/01/21 02:17:04;;;;;;;3.22;0.93;;;11.40;99.90;;;;;;5088039;28;20095;-69
2021/01/21 02:19:57;;;;;;;2.17;1.30;;;11.40;99.90;;;;;;5069728;28;20048;-69
2021/01/21 02:23:07;;;;;;;2.80;1.13;;;11.40;99.90;;;;;;5057082;28;20036;-70
2021/01/21 02:25:52;;;;;;;2.38;1.08;;;11.50;99.90;;;;;;5086932;28;20028;-70
2021/01/21 02:28:31;;;;;;;3.45;1.00;;;11.50;99.90;;;;;;5068563;28;20020;-69
2021/01/21 02:31:02;;;;;;;1.80;1.02;;;11.50;99.90;;;;;;5075849;28;20046;-69
2021/01/21 02:33:47;;;;;;;6.57;0.90;;;11.60;99.90;;;;;;5085450;28;20496;-71
2021/01/21 02:36:19;;;;;;;1.65;1.08;;;11.50;99.90;;;;;;5077245;28;20036;-69
2021/01/21 02:38:46;;;;;;;2.80;1.00;;;11.50;99.90;;;;;;5072864;28;20081;-70
2021/01/21 02:41:13;;;;;;;2.35;1.00;;;11.30;99.90;;;;;;5058538;28;20028;-68
2021/01/21 02:43:38;;;;;;;2.30;1.75;;;11.30;99.90;;;;;;5087367;28;20035;-71
2021/01/21 02:46:04;;;;;;;2.10;0.93;;;11.20;99.90;;;;;;5087626;28;20032;-67
2021/01/21 02:48:31;;;;;;;4.78;1.15;;;11.20;99.90;;;;;;5091394;28;20035;-67
2021/01/21 02:51:17;;;;;;;4.20;1.30;;;11.20;99.90;;;;;;5079227;28;20044;-71
2021/01/21 02:54:10;;;;;;;2.83;1.20;;;11.10;99.90;;;;;;5087817;28;20028;-70
2021/01/21 02:57:00;;;;;;;1.90;1.05;;;11.10;99.90;;;;;;5086713;28;20457;-69
2021/01/21 02:59:30;;;;;;;4.28;1.40;;;11.10;99.90;;;;;;5090329;28;20329;-70
2021/01/21 03:01:57;;;;;;;5.22;1.30;;;11.10;99.90;;;;;;5085179;28;20119;-70
2021/01/21 03:04:25;;;;;;;3.85;1.20;;;11.00;99.90;;;;;;5090591;28;20108;-70
2021/01/21 03:06:57;;;;;;;5.57;1.25;;;10.70;99.90;;;;;;5068953;28;20388;-68
2021/01/21 03:09:23;;;;;;;3.40;1.50;;;10.50;99.90;;;;;;5066559;28;20029;-71
2021/01/21 03:11:48;;;;;;;1.40;1.00;;;10.50;99.90;;;;;;5078755;28;20036;-73
2021/01/21 03:14:14;;;;;;;3.75;1.42;;;10.40;99.90;;;;;;5094146;28;20617;-72
2021/01/21 03:16:41;;;;;;;4.53;1.70;;;10.30;99.90;;;;;;5090825;28;20217;-73
2021/01/21 03:19:07;;;;;;;4.03;1.20;;;10.30;99.90;;;;;;5069503;28;20109;-72
2021/01/21 03:21:32;;;;;;;1.85;1.35;;;10.30;99.90;;;;;;5072872;28;20028;-72
2021/01/21 03:23:58;;;;;;;5.70;1.80;;;10.20;99.90;;;;;;5071850;28;20089;-70
2021/01/21 03:26:23;;;;;;;2.83;1.60;;;10.10;99.90;;;;;;5091554;28;20449;-72
2021/01/21 03:28:50;;;;;;;2.72;1.00;;;10.10;99.90;;;;;;5090632;28;20054;-71
2021/01/21 03:31:19;;;;;;;2.97;1.15;;;8.90;99.90;;;;;;5091727;28;20031;-71
2021/01/21 03:33:45;;;;;;;11.75;1.63;;;8.00;99.90;;;;;;5072813;28;20102;-71
2021/01/21 03:36:12;;;;;;;5.65;1.23;;;7.30;99.90;;;;;;5090538;28;20513;-70
2021/01/21 03:38:37;;;;;;;7.90;0.93;;;7.00;99.90;;;;;;5090836;28;20050;-69
2021/01/21 03:41:03;;;;;;;7.55;1.20;;;6.90;99.90;;;;;;5089680;28;20020;-71
2021/01/21 03:43:29;;;;;;;7.10;0.90;;;6.80;99.90;;;;;;5092138;28;20043;-70
2021/01/21 03:45:55;;;;;;;9.85;1.30;;;6.80;99.90;;;;;;5087412;28;20377;-71
2021/01/21 03:48:20;;;;;;;7.43;1.52;;;6.70;99.90;;;;;;5099833;28;20103;-72
2021/01/21 03:50:49;;;;;;;8.15;1.33;;;6.80;99.90;;;;;;5096437;28;20431;-71
2021/01/21 03:53:14;;;;;;;15.40;1.73;;;6.90;99.90;;;;;;5106084;28;20027;-71
2021/01/21 03:55:40;;;;;;;6.57;1.27;;;6.90;99.90;;;;;;5091948;28;20558;-70
2021/01/21 03:58:05;;;;;;;1.85;0.65;;;7.10;99.90;;;;;;5073008;28;20024;-70
2021/01/21 04:00:31;;;;;;;6.25;0.98;;;7.20;99.90;;;;;;5094052;28;20027;-70
2021/01/21 04:02:56;;;;;;;6.00;0.95;;;7.30;99.90;;;;;;5098224;28;20035;-71
2021/01/21 04:05:22;;;;;;;3.33;0.70;;;7.30;99.90;;;;;;5072389;28;20020;-70
2021/01/21 04:07:47;;;;;;;3.63;0.50;;;7.30;99.90;;;;;;5068533;28;20047;-71
2021/01/21 04:10:14;;;;;;;10.00;0.88;;;7.40;99.90;;;;;;5091722;28;20035;-70
2021/01/21 04:12:40;;;;;;;6.80;0.80;;;7.40;99.90;;;;;;5097910;28;20020;-70
2021/01/21 04:15:06;;;;;;;7.22;0.88;;;7.50;99.90;;;;;;5038494;28;20083;-69
2021/01/21 04:17:31;;;;;;;7.72;1.13;;;7.50;99.90;;;;;;5047285;28;20485;-70
2021/01/21 04:19:57;;;;;;;11.32;1.63;;;7.50;99.90;;;;;;5068862;28;20024;-71
2021/01/21 04:22:23;;;;;;;7.53;1.08;;;7.50;99.90;;;;;;5038917;28;20131;-71
2021/01/21 04:24:50;;;;;;;10.25;1.25;;;7.50;99.90;;;;;;5050643;28;20028;-70
2021/01/21 04:27:17;;;;;;;10.40;0.85;;;7.50;99.90;;;;;;5069183;28;20485;-68
2021/01/21 04:29:43;;;;;;;8.75;1.30;;;7.50;99.90;;;;;;5070245;28;20025;-70
2021/01/21 04:32:09;;;;;;;9.43;1.55;;;7.50;99.90;;;;;;5050840;28;20102;-69
2021/01/21 04:34:34;;;;;;;6.25;1.35;;;7.50;99.90;;;;;;5073827;28;20063;-70
2021/01/21 04:37:00;;;;;;;7.75;1.08;;;7.50;99.90;;;;;;5071263;28;20040;-70
2021/01/21 04:39:26;;;;;;;12.98;1.30;;;7.50;99.90;;;;;;5072707;28;20048;-70
2021/01/21 04:41:51;;;;;;;9.05;1.65;;;7.50;99.90;;;;;;5047069;28;20169;-70
2021/01/21 04:44:18;;;;;;;9.23;1.52;;;7.50;99.90;;;;;;5066638;28;20020;-69
2021/01/21 04:46:45;;;;;;;10.77;1.65;;;7.50;99.90;;;;;;5069257;28;20396;-70
2021/01/21 04:49:13;;;;;;;10.68;1.58;;;7.60;99.90;;;;;;5068415;28;20048;-70
2021/01/21 04:51:40;;;;;;;13.98;1.83;;;7.60;99.90;;;;;;5069325;28;20058;-69
2021/01/21 04:54:07;;;;;;;14.07;1.67;;;7.60;99.90;;;;;;5047628;28;20115;-68
2021/01/21 04:56:37;;;;;;;13.15;1.65;;;7.50;99.90;;;;;;5048163;28;20033;-69
2021/01/21 04:59:05;;;;;;;15.30;1.77;;;7.50;99.90;;;;;;5068850;28;20437;-70
2021/01/21 05:01:31;;;;;;;20.60;1.98;;;7.50;99.90;;;;;;5068807;28;20032;-71
2021/01/21 05:03:57;;;;;;;11.68;1.67;;;7.50;99.90;;;;;;5050644;28;20295;-69
2021/01/21 05:06:23;;;;;;;12.13;2.53;;;7.40;99.90;;;;;;5067230;28;20461;-69
2021/01/21 05:08:50;;;;;;;9.32;1.98;;;7.30;99.90;;;;;;5068534;28;20032;-67
2021/01/21 05:11:17;;;;;;;13.45;2.05;;;7.20;99.90;;;;;;5065358;28;20568;-69
2021/01/21 05:13:43;;;;;;;11.90;1.77;;;7.10;99.90;;;;;;5040381;28;20087;-69
2021/01/21 05:16:09;;;;;;;9.88;1.88;;;7.10;99.90;;;;;;5081999;28;20493;-69
2021/01/21 05:18:36;;;;;;;13.27;1.50;;;7.00;99.90;;;;;;5047008;28;20059;-68
2021/01/21 05:21:06;;;;;;;11.40;1.63;;;7.00;99.90;;;;;;5088818;28;20032;-67
2021/01/21 05:23:32;;;;;;;12.18;1.65;;;7.00;99.90;;;;;;5079487;28;20025;-68
2021/01/21 05:26:00;;;;;;;10.85;1.63;;;6.90;99.90;;;;;;5077088;28;20031;-70
2021/01/21 05:28:27;;;;;;;13.68;1.90;;;6.80;99.90;;;;;;5048396;28;20024;-67
2021/01/21 05:30:53;;;;;;;10.30;1.67;;;6.90;99.90;;;;;;5087793;28;20092;-67
2021/01/21 05:33:20;;;;;;;12.15;1.20;;;6.90;99.90;;;;;;5055248;28;20162;-68
2021/01/21 05:35:51;;;;;;;13.60;1.77;;;6.90;99.90;;;;;;5085746;28;20020;-68
2021/01/21 05:38:17;;;;;;;11.65;1.23;;;6.90;99.90;;;;;;5088527;28;20031;-71
2021/01/21 05:40:46;;;;;;;10.15;1.30;;;6.90;99.90;;;;;;5051760;28;20029;-68
2021/01/21 05:43:14;;;;;;;8.00;1.35;;;6.80;99.90;;;;;;5077741;28;20049;-68
2021/01/21 05:45:45;;;;;;;8.13;1.20;;;6.90;99.90;;;;;;5078688;28;20023;-68
2021/01/21 05:48:13;;;;;;;9.65;1.80;;;6.90;99.90;;;;;;5078904;28;20020;-67
2021/01/21 05:50:39;;;;;;;14.50;1.42;;;6.80;99.90;;;;;;5088684;28;20043;-68
2021/01/21 05:53:08;;;;;;;13.63;1.55;;;6.80;99.90;;;;;;5087504;28;20488;-69
2021/01/21 05:55:37;;;;;;;10.70;1.55;;;6.70;99.90;;;;;;5087739;28;20032;-70
2021/01/21 05:58:03;;;;;;;8.93;0.93;;;6.60;99.90;;;;;;5086891;28;20020;-67
2021/01/21 06:00:31;;;;;;;8.32;1.23;;;6.60;99.90;;;;;;5085978;28;20036;-68
2021/01/21 06:02:58;;;;;;;10.43;1.10;;;6.50;99.90;;;;;;5067325;28;20032;-68
2021/01/21 06:05:24;;;;;;;7.93;1.70;;;6.50;99.90;;;;;;5061420;28;20378;-66
2021/01/21 06:07:50;;;;;;;14.23;1.23;;;6.40;99.90;;;;;;5083946;28;20024;-67
2021/01/21 06:10:18;;;;;;;9.15;1.45;;;6.40;99.90;;;;;;5071739;28;20469;-68
2021/01/21 06:12:47;;;;;;;10.93;1.40;;;6.40;99.90;;;;;;5085197;28;20500;-69
2021/01/21 06:15:14;;;;;;;5.78;1.70;;;6.30;99.90;;;;;;5080892;28;20043;-68
2021/01/21 06:17:46;;;;;;;7.25;1.75;;;6.30;99.90;;;;;;5085530;28;20380;-67
2021/01/21 06:20:13;;;;;;;10.47;1.50;;;6.40;99.90;;;;;;5081277;28;20088;-67
2021/01/21 06:22:44;;;;;;;11.88;1.63;;;6.30;99.90;;;;;;5087295;28;20023;-69
2021/01/21 06:25:13;;;;;;;14.40;1.85;;;6.30;99.90;;;;;;5071874;28;20059;-66
2021/01/21 06:27:41;;;;;;;5.28;1.20;;;6.30;99.90;;;;;;5091459;28;20031;-68
2021/01/21 06:30:11;;;;;;;5.00;1.30;;;6.20;99.90;;;;;;5086675;28;20073;-67
2021/01/21 06:32:57;;;;;;;13.80;1.27;;;6.10;99.90;;;;;;5090430;28;20051;-66
2021/01/21 06:35:27;;;;;;;11.75;1.58;;;6.20;99.90;;;;;;5059588;28;20152;-67
2021/01/21 06:37:59;;;;;;;10.80;1.30;;;6.20;99.90;;;;;;5087952;28;20025;-65
2021/01/21 06:40:25;;;;;;;;;;;6.10;99.90;;;;;;5086316;28;20071;-66
2021/01/21 06:43:11;;;;;;;12.07;1.50;;;6.10;99.90;;;;;;5063038;28;19959;-67
2021/01/21 06:45:38;;;;;;;12.90;1.75;;;6.00;99.90;;;;;;5074727;28;20120;-67
2021/01/21 06:48:05;;;;;;;12.23;1.50;;;6.00;99.90;;;;;;5084100;28;20027;-67
2021/01/21 06:50:32;;;;;;;8.40;1.27;;;6.00;99.90;;;;;;5087940;28;20032;-66
2021/01/21 06:53:07;;;;;;;11.70;1.90;;;6.00;99.90;;;;;;5084271;28;20111;-68
2021/01/21 06:55:35;;;;;;;8.05;1.80;;;6.00;99.90;;;;;;5077279;28;20024;-69
2021/01/21 06:58:02;;;;;;;16.30;1.83;;;6.00;99.90;;;;;;5075762;28;20081;-68
2021/01/21 07:00:34;;;;;;;16.83;1.40;;;5.90;99.90;;;;;;5080697;28;20035;-70
2021/01/21 07:03:00;;;;;;;6.70;1.63;;;5.90;99.90;;;;;;5082044;28;20477;-68
2021/01/21 07:05:28;;;;;;;3.83;1.15;;;5.90;99.90;;;;;;5083544;28;20025;-69
2021/01/21 07:07:57;;;;;;;8.15;1.35;;;5.90;99.90;;;;;;5080402;28;20473;-68
2021/01/21 07:10:45;;;;;;;7.47;1.83;;;5.90;99.90;;;;;;5086178;28;20028;-69
2021/01/21 07:13:21;;;;;;;23.50;1.90;;;5.80;99.90;;;;;;5078868;28;20399;-67
2021/01/21 07:16:03;;;;;;;8.05;1.67;;;5.80;99.90;;;;;;5074168;28;20469;-69
2021/01/21 07:18:34;;;;;;;5.28;1.58;;;5.80;99.90;;;;;;5054222;28;20036;-69
2021/01/21 07:20:59;;;;;;;12.55;1.75;;;5.80;99.90;;;;;;5081725;28;20084;-68
2021/01/21 07:23:39;;;;;;;13.23;1.50;;;5.70;99.90;;;;;;5067648;28;20040;-68
2021/01/21 07:26:26;;;;;;;18.92;1.98;;;5.70;99.90;;;;;;5074717;28;20060;-67
2021/01/21 07:28:55;;;;;;;12.00;2.08;;;5.70;99.90;;;;;;5075420;28;20024;-67
2021/01/21 07:31:20;;;;;;;12.23;2.10;;;5.70;99.90;;;;;;5076952;28;20472;-69
2021/01/21 07:33:52;;;;;;;19.02;2.05;;;5.70;99.90;;;;;;5074390;28;20028;-70
2021/01/21 07:36:29;;;;;;;13.60;2.20;;;5.70;99.90;;;;;;5075693;28;20178;-70
2021/01/21 07:38:54;;;;;;;16.50;1.98;;;5.70;99.90;;;;;;5084087;28;20028;-68
2021/01/21 07:41:43;;;;;;;17.40;2.70;;;5.70;99.90;;;;;;5076915;28;20038;-68
2021/01/21 07:44:10;;;;;;;20.77;2.30;;;5.70;99.90;;;;;;5084319;28;20024;-68
2021/01/21 07:46:35;;;;;;;12.73;2.22;;;5.70;99.90;;;;;;5086899;28;20365;-68
2021/01/21 07:49:27;;;;;;;9.10;2.20;;;5.70;99.90;;;;;;5090334;28;20024;-68
2021/01/21 07:52:03;;;;;;;11.50;1.58;;;5.70;99.90;;;;;;5090617;28;20042;-68
2021/01/21 07:54:43;;;;;;;10.10;2.10;;;5.70;99.90;;;;;;5089539;28;20507;-67
2021/01/21 07:57:08;;;;;;;9.70;2.45;;;5.70;99.90;;;;;;5091280;28;20039;-67
2021/01/21 08:00:00;;;;;;;8.23;1.80;;;5.70;99.90;;;;;;5069663;28;20012;-68
2021/01/21 08:02:44;;;;;;;12.15;1.85;;;5.70;99.90;;;;;;5077324;28;20027;-67
2021/01/21 08:05:10;;;;;;;14.70;1.95;;;5.80;99.90;;;;;;5073597;28;20021;-67
2021/01/21 08:07:52;;;;;;;12.38;2.10;;;5.80;99.90;;;;;;5087838;28;20031;-71
2021/01/21 08:10:21;;;;;;;14.10;2.10;;;5.90;99.90;;;;;;5073764;28;20031;-67
2021/01/21 08:13:00;;;;;;;9.88;1.75;;;5.90;99.90;;;;;;5088968;28;20039;-68
2021/01/21 08:15:28;;;;;;;13.32;1.67;;;5.90;99.90;;;;;;5086843;28;20052;-69
2021/01/21 08:17:54;;;;;;;15.98;2.05;;;6.00;99.90;;;;;;5083384;28;20020;-68
2021/01/21 08:20:21;;;;;;;12.32;2.15;;;6.00;99.90;;;;;;5066779;28;20021;-68
2021/01/21 08:23:09;;;;;;;21.75;2.50;;;5.90;99.90;;;;;;5087559;28;20020;-68
2021/01/21 08:25:53;;;;;;;11.85;1.83;;;6.00;99.90;;;;;;5075898;28;20119;-67
2021/01/21 08:28:20;;;;;;;12.48;2.17;;;6.10;99.90;;;;;;5088363;28;20064;-66
2021/01/21 08:30:49;;;;;;;10.93;2.50;;;6.10;99.90;;;;;;5074818;28;20028;-70
2021/01/21 08:33:39;;;;;;;14.23;1.88;;;6.20;99.90;;;;;;5090058;28;20055;-69
2021/01/21 08:36:05;;;;;;;12.25;3.10;;;6.30;99.90;;;;;;5066697;28;20032;-69
2021/01/21 08:38:35;;;;;;;12.68;1.83;;;6.30;99.90;;;;;;5088911;28;20032;-68
2021/01/21 08:41:05;;;;;;;11.18;3.13;;;6.30;99.90;;;;;;5089555;28;20023;-67
2021/01/21 08:43:31;;;;;;;12.15;2.40;;;6.40;99.90;;;;;;5075487;28;20097;-67
2021/01/21 08:45:58;;;;;;;12.38;2.17;;;6.40;99.90;;;;;;5079859;28;20031;-68
2021/01/21 08:48:28;;;;;;;8.40;2.53;;;6.40;99.90;;;;;;5054533;28;20542;-67
2021/01/21 08:50:55;;;;;;;15.65;2.58;;;6.40;99.90;;;;;;5073118;28;20048;-67
2021/01/21 08:53:22;;;;;;;18.67;2.08;;;6.40;99.90;;;;;;5083525;28;20038;-68
2021/01/21 08:55:50;;;;;;;10.27;1.73;;;6.40;99.90;;;;;;5087278;28;20545;-68
2021/01/21 08:58:18;;;;;;;23.08;2.53;;;6.50;99.90;;;;;;5076749;28;20067;-67
2021/01/21 09:01:06;;;;;;;9.50;2.30;;;6.50;99.90;;;;;;5079172;28;20457;-68
2021/01/21 09:03:52;;;;;;;10.63;1.88;;;6.60;99.90;;;;;;5071232;28;20393;-68
2021/01/21 09:06:41;;;;;;;;;;;6.60;99.90;;;;;;5059393;28;20035;-67
2021/01/21 09:09:09;;;;;;;20.80;3.28;;;6.60;99.90;;;;;;5064126;28;19948;-68
2021/01/21 09:11:39;;;;;;;11.63;2.10;;;6.70;99.90;;;;;;5077543;28;20044;-69
2021/01/21 09:14:14;;;;;;;19.92;1.90;;;6.70;99.90;;;;;;5086832;28;20155;-70
2021/01/21 09:16:52;;;;;;;18.90;2.63;;;6.70;99.90;;;;;;5096199;28;20027;-69
2021/01/21 09:19:26;;;;;;;12.32;2.13;;;6.90;99.90;;;;;;5091102;28;20025;-70
2021/01/21 09:22:06;;;;;;;13.98;2.33;;;7.00;99.90;;;;;;5087742;28;20023;-68
2021/01/21 09:24:33;;;;;;;19.15;2.67;;;7.10;99.90;;;;;;5092581;28;20027;-68
2021/01/21 09:27:15;;;;;;;16.10;2.67;;;7.10;99.90;;;;;;5090501;28;20024;-68
2021/01/21 09:29:58;;;;;;;14.40;2.00;;;7.10;99.90;;;;;;5089391;28;20024;-69
2021/01/21 09:32:36;;;;;;;13.27;2.60;;;7.10;99.90;;;;;;5070199;28;20040;-68
2021/01/21 09:35:01;;;;;;;12.30;1.70;;;7.10;99.90;;;;;;5089164;28;20035;-70
2021/01/21 09:37:39;;;;;;;12.40;2.08;;;7.10;99.90;;;;;;5088548;28;20024;-70
2021/01/21 09:40:06;;;;;;;21.23;2.88;;;7.10;99.90;;;;;;5089134;28;20051;-68
2021/01/21 09:42:31;;;;;;;9.70;2.35;;;7.10;99.90;;;;;;5087997;28;20012;-69
2021/01/21 09:44:57;;;;;;;17.23;2.60;;;7.20;99.90;;;;;;5089016;28;20081;-69
2021/01/21 09:47:23;;;;;;;10.15;3.08;;;7.20;99.90;;;;;;5088258;28;20047;-71
2021/01/21 09:49:49;;;;;;;14.60;1.95;;;7.30;99.90;;;;;;5088916;28;20032;-67
2021/01/21 09:52:15;;;;;;;17.77;2.42;;;7.30;99.90;;;;;;5085839;28;20043;-70
2021/01/21 09:54:40;;;;;;;10.93;2.38;;;7.40;99.90;;;;;;5087767;28;20376;-69
2021/01/21 09:57:06;;;;;;;9.75;1.83;;;7.40;99.90;;;;;;5073638;28;20023;-71
2021/01/21 09:59:32;;;;;;;11.18;1.73;;;7.40;99.90;;;;;;5089440;28;20013;-69
2021/01/21 10:01:58;;;;;;;14.00;1.98;;;7.40;99.90;;;;;;5088945;28;20036;-70
2021/01/21 10:04:24;;;;;;;13.00;1.67;;;7.40;99.90;;;;;;5088120;28;20024;-69
2021/01/21 10:06:50;;;;;;;8.48;1.40;;;7.40;99.90;;;;;;5053464;28;20721;-70
2021/01/21 10:09:16;;;;;;;8.10;1.67;;;7.50;99.90;;;;;;5088151;28;20423;-71
2021/01/21 10:11:42;;;;;;;9.95;1.42;;;7.50;99.90;;;;;;5088222;28;20119;-67
2021/01/21 10:14:08;;;;;;;10.63;2.08;;;7.50;99.90;;;;;;5074545;28;20131;-68
2021/01/21 10:16:34;;;;;;;17.17;2.08;;;7.50;99.90;;;;;;5067388;28;20032;-68
2021/01/21 10:19:00;;;;;;;12.07;1.75;;;7.40;99.90;;;;;;5068369;28;20372;-69
2021/01/21 10:21:26;;;;;;;8.18;1.27;;;7.40;99.90;;;;;;5054267;28;20498;-69
2021/01/21 10:23:52;;;;;;;20.88;2.10;;;7.40;99.90;;;;;;5031805;28;20017;-69
2021/01/21 10:26:19;;;;;;;11.63;1.92;;;7.40;99.90;;;;;;5049834;28;20496;-68
2021/01/21 10:28:44;;;;;;;6.60;2.03;;;7.40;99.90;;;;;;5061917;28;20063;-67
2021/01/21 10:31:10;;;;;;;7.18;1.25;;;7.30;99.90;;;;;;5058317;28;20064;-67
2021/01/21 10:33:38;;;;;;;12.15;1.88;;;7.40;99.90;;;;;;5067951;28;20031;-69
2021/01/21 10:36:05;;;;;;;11.18;1.65;;;7.40;99.90;;;;;;5067511;28;20032;-67
2021/01/21 10:38:31;;;;;;;7.78;1.50;;;7.40;99.90;;;;;;5067348;28;20385;-71
2021/01/21 10:40:57;;;;;;;15.82;2.92;;;7.50;99.90;;;;;;5066107;28;20505;-70
2021/01/21 10:43:23;;;;;;;5.38;1.30;;;7.50;99.90;;;;;;5066187;28;20035;-69
2021/01/21 10:45:48;;;;;;;9.75;1.42;;;7.60;99.90;;;;;;5053533;28;20303;-67
2021/01/21 10:48:14;;;;;;;6.57;1.70;;;7.60;99.90;;;;;;5068061;28;20505;-68
2021/01/21 10:50:40;;;;;;;6.90;1.45;;;7.50;99.90;;;;;;5067884;28;20496;-68
2021/01/21 10:53:06;;;;;;;10.10;1.27;;;7.50;99.90;;;;;;5061903;28;20485;-71
2021/01/21 10:55:32;;;;;;;5.75;1.30;;;7.50;99.90;;;;;;5048328;28;20029;-69
2021/01/21 10:57:58;;;;;;;7.85;1.30;;;7.50;99.90;;;;;;5049010;28;20093;-70
2021/01/21 11:00:23;;;;;;;10.82;1.80;;;7.50;99.90;;;;;;5058974;28;20025;-70
2021/01/21 11:02:49;;;;;;;11.32;1.58;;;7.50;99.90;;;;;;5055322;28;20020;-70
2021/01/21 11:05:15;;;;;;;5.93;1.15;;;7.50;99.90;;;;;;5068041;28;20454;-69
2021/01/21 11:07:41;;;;;;;10.13;1.60;;;7.50;99.90;;;;;;5069782;28;20059;-70
2021/01/21 11:10:07;;;;;;;8.75;1.60;;;7.50;99.90;;;;;;5068163;28;20051;-70
2021/01/21 11:12:33;;;;;;;10.65;1.83;;;7.60;99.90;;;;;;5050720;28;20036;-68
2021/01/21 11:14:58;;;;;;;8.10;2.28;;;7.60;99.90;;;;;;5084138;28;20063;-67
2021/01/21 11:17:26;;;;;;;10.70;1.83;;;7.60;99.90;;;;;;5096176;28;20020;-69
2021/01/21 11:19:52;;;;;;;13.00;1.73;;;7.60;99.90;;;;;;5087703;28;20196;-69
2021/01/21 11:22:17;;;;;;;12.43;1.77;;;7.70;99.90;;;;;;5055851;28;20502;-69
2021/01/21 11:24:43;;;;;;;4.10;1.42;;;7.90;99.90;;;;;;5085658;28;20020;-69
2021/01/21 11:27:08;;;;;;;8.48;1.73;;;8.10;99.90;;;;;;5085053;28;20035;-69
2021/01/21 11:29:34;;;;;;;13.80;1.58;;;8.00;99.90;;;;;;5088333;28;20043;-68
2021/01/21 11:31:59;;;;;;;4.93;1.30;;;8.10;99.90;;;;;;5090239;28;20036;-68
2021/01/21 11:34:25;;;;;;;3.90;1.13;;;8.30;99.90;;;;;;5089015;28;20030;-68
2021/01/21 11:36:51;;;;;;;11.45;1.88;;;8.70;99.90;;;;;;5090143;28;20582;-70
2021/01/21 11:39:17;;;;;;;11.02;1.90;;;8.90;99.90;;;;;;5090470;28;20017;-69
2021/01/21 11:41:42;;;;;;;9.13;1.63;;;8.70;99.90;;;;;;5096469;28;20039;-70
2021/01/21 11:44:08;;;;;;;5.93;1.55;;;8.70;99.90;;;;;;5089825;28;20027;-68
2021/01/21 11:46:34;;;;;;;10.77;1.35;;;8.60;99.90;;;;;;5090425;28;20028;-69
2021/01/21 11:48:59;;;;;;;8.48;1.38;;;8.40;99.90;;;;;;5089477;28;20028;-68
2021/01/21 11:51:25;;;;;;;4.60;1.20;;;8.30;99.90;;;;;;5072306;28;20036;-70
2021/01/21 11:53:51;;;;;;;7.40;1.35;;;8.30;99.90;;;;;;5099564;28;20012;-68
2021/01/21 11:56:16;;;;;;;4.65;1.35;;;8.20;99.90;;;;;;5065968;28;20044;-69
2021/01/21 11:58:43;;;;;;;14.07;2.13;;;8.20;99.90;;;;;;5087855;28;20300;-70
2021/01/21 12:01:09;;;;;;;14.45;1.83;;;8.40;99.90;;;;;;5088498;28;20560;-71
2021/01/21 12:03:35;;;;;;;13.05;2.30;;;8.70;99.90;;;;;;5070033;28;20028;-70
2021/01/21 12:06:01;;;;;;;7.05;1.60;;;8.40;99.90;;;;;;5095092;28;20074;-69
2021/01/21 12:08:27;;;;;;;7.00;1.67;;;8.60;99.90;;;;;;5085029;28;20035;-69
2021/01/21 12:10:53;;;;;;;8.25;1.38;;;8.50;99.90;;;;;;5064682;28;20036;-72
2021/01/21 12:13:18;;;;;;;10.43;2.22;;;8.60;99.90;;;;;;5086884;28;20154;-67
2021/01/21 12:15:44;;;;;;;8.32;1.88;;;8.60;99.90;;;;;;5090666;28;20020;-69
2021/01/21 12:18:10;;;;;;;9.07;1.67;;;8.30;99.90;;;;;;5083065;28;20016;-69
2021/01/21 12:20:35;;;;;;;9.25;1.98;;;8.20;99.90;;;;;;5089358;28;20023;-69
2021/01/21 12:23:01;;;;;;;7.90;1.95;;;8.20;99.90;;;;;;5095954;28;20035;-73
2021/01/21 12:25:26;;;;;;;5.93;1.92;;;8.10;99.90;;;;;;5057846;28;20021;-69
2021/01/21 12:27:52;;;;;;;23.52;2.45;;;8.10;99.90;;;;;;5091045;28;20610;-70
2021/01/21 12:30:18;;;;;;;6.90;1.83;;;8.10;99.90;;;;;;5089502;28;20020;-69
2021/01/21 12:32:44;;;;;;;8.57;2.50;;;8.10;99.90;;;;;;5071220;28;20048;-67
2021/01/21 12:35:11;;;;;;;8.18;1.25;;;8.20;99.90;;;;;;5087949;28;20043;-68
2021/01/21 12:37:36;;;;;;;13.05;1.63;;;8.10;99.90;;;;;;5085746;28;20098;-69
2021/01/21 12:40:03;;;;;;;5.80;1.50;;;8.20;99.90;;;;;;5089367;28;20508;-69
2021/01/21 12:42:30;;;;;;;8.57;1.98;;;8.20;99.90;;;;;;5071811;28;20720;-68
2021/01/21 12:44:55;;;;;;;10.07;1.75;;;8.20;99.90;;;;;;5081495;28;20024;-69
2021/01/21 12:47:22;;;;;;;13.57;2.10;;;8.20;99.90;;;;;;5065823;28;20055;-71
2021/01/21 12:49:48;;;;;;;7.28;1.08;;;8.30;99.90;;;;;;5087834;28;20024;-69
2021/01/21 12:52:13;;;;;;;7.30;2.00;;;8.30;99.90;;;;;;5088434;28;20089;-68
2021/01/21 12:54:39;;;;;;;11.00;1.52;;;8.40;99.90;;;;;;5089782;28;20020;-69
2021/01/21 12:57:05;;;;;;;5.60;1.48;;;8.30;99.90;;;;;;5088686;28;20016;-69
2021/01/21 12:59:30;;;;;;;8.65;1.60;;;8.40;99.90;;;;;;5089525;28;20058;-68
2021/01/21 13:01:57;;;;;;;13.23;2.08;;;8.30;99.90;;;;;;5088249;28;20024;-71
2021/01/21 13:04:23;;;;;;;12.05;1.48;;;8.30;99.90;;;;;;5086114;28;20081;-68
2021/01/21 13:06:48;;;;;;;9.15;1.42;;;8.30;99.90;;;;;;5088768;28;20035;-68
2021/01/21 13:09:16;;;;;;;8.50;1.50;;;8.30;99.90;;;;;;5087663;28;20369;-67
2021/01/21 13:11:41;;;;;;;7.07;1.25;;;8.40;99.90;;;;;;5089298;28;20028;-69
2021/01/21 13:14:07;;;;;;;4.18;1.20;;;8.50;99.90;;;;;;5089210;28;20067;-71
2021/01/21 13:16:33;;;;;;;3.88;1.33;;;8.50;99.90;;;;;;5086863;28;20031;-70
2021/01/21 13:18:58;;;;;;;8.20;1.27;;;8.40;99.90;;;;;;5088633;28;20480;-69
2021/01/21 13:21:24;;;;;;;7.97;1.55;;;8.50;99.90;;;;;;5069355;28;20047;-68